Maytown, Pennsylvania
Current Conditions -  °F | °C
As of 3:56 AM on Saturday 20 Dec 2014 (Local Time) from KMDT Reporting Station
Overcast Overcast  
Wind Chill: 22°   Ceiling: 3200
Heat Index: 31°   Visibility: 10mi
Dew Point: 20°   Wind: 12mph
Humidity: 64%   Direction: 300°WNW
Pressure: 30.24"   Gusts: NA
Location:  40.08°N, 76.58°W
Report Text: KMDT 200856Z 30010KT 10SM OVC032 M01/M07 A3024 RMK AO2 SLP246 T10061067 51012
Loading
Personal Weather Stations






























Interactive Weather Map New forecast layout! Learn more

10-Day Weather Forecast

Advertisements
Track Severe Weather on mobile